Time;durP1;ratioP1;P1;durP2;ratioP2;P2;SDS_P1;SDS_P2;PMS_P1;PMS_P2;Temp;Humidity;BMP_temperature;BMP_pressure;BME280_temperature;BME280_humidity;BME280_pressure;Samples;Min_cycle;Max_cycle;Signal;HPM_P1;HPM_P2
2023/06/27 00:00:11;;;;;;;8.90;2.25;;;19.90;77.40;;;;;;4115605;28;20062;-54
2023/06/27 00:02:13;;;;;;;4.38;1.80;;;19.90;76.70;;;;;;4114331;28;20485;-54
2023/06/27 00:04:16;;;;;;;5.35;1.67;;;19.90;77.00;;;;;;4115640;28;20051;-56
2023/06/27 00:06:21;;;;;;;7.57;1.90;;;19.90;78.20;;;;;;4115501;28;20126;-56
2023/06/27 00:08:24;;;;;;;7.18;2.10;;;19.80;77.00;;;;;;4115552;28;20090;-56
2023/06/27 00:10:26;;;;;;;7.00;1.80;;;19.80;77.40;;;;;;4115246;28;20412;-56
2023/06/27 00:12:30;;;;;;;7.30;2.08;;;19.70;77.10;;;;;;4114469;28;20068;-56
2023/06/27 00:14:33;;;;;;;6.32;1.80;;;19.70;77.00;;;;;;4115564;28;20051;-56
2023/06/27 00:16:35;;;;;;;6.50;1.63;;;19.70;77.40;;;;;;4115450;28;20039;-65
2023/06/27 00:18:37;;;;;;;7.40;1.77;;;19.70;77.60;;;;;;4115732;28;20039;-56
2023/06/27 00:20:39;;;;;;;6.13;1.90;;;19.60;77.60;;;;;;4115779;28;20408;-56
2023/06/27 00:22:41;;;;;;;7.43;2.15;;;19.50;77.90;;;;;;4115457;28;20074;-53
2023/06/27 00:24:44;;;;;;;6.60;1.65;;;19.40;78.30;;;;;;4116298;28;20046;-53
2023/06/27 00:26:47;;;;;;;4.55;1.35;;;19.40;79.10;;;;;;4116260;28;20081;-55
2023/06/27 00:28:49;;;;;;;8.10;2.30;;;19.30;78.90;;;;;;4115668;28;20054;-53
2023/06/27 00:30:51;;;;;;;4.78;1.40;;;19.30;79.20;;;;;;4115658;28;20417;-53
2023/06/27 00:32:53;;;;;;;7.70;1.85;;;19.30;79.40;;;;;;4114481;28;20106;-53
2023/06/27 00:34:55;;;;;;;4.68;1.40;;;19.20;79.50;;;;;;4115531;28;20046;-53
2023/06/27 00:37:00;;;;;;;5.85;1.50;;;19.30;80.20;;;;;;4115308;28;20407;-59
2023/06/27 00:39:03;;;;;;;4.00;1.63;;;19.30;79.40;;;;;;4114530;28;20480;-58
2023/06/27 00:41:06;;;;;;;5.63;1.92;;;19.30;79.70;;;;;;4115063;28;20077;-59
2023/06/27 00:43:09;;;;;;;4.05;1.58;;;19.20;79.70;;;;;;4114263;28;20054;-58
2023/06/27 00:45:11;;;;;;;4.45;1.70;;;19.20;79.70;;;;;;4099126;28;20482;-58
2023/06/27 00:47:13;;;;;;;4.18;1.70;;;19.20;80.00;;;;;;4118747;28;20130;-54
2023/06/27 00:49:18;;;;;;;4.60;1.85;;;19.20;80.40;;;;;;4118181;28;20046;-54
2023/06/27 00:51:20;;;;;;;4.50;1.65;;;19.10;80.20;;;;;;4118399;28;20531;-60
2023/06/27 00:53:22;;;;;;;5.25;1.70;;;19.10;80.00;;;;;;4116919;28;20042;-57
2023/06/27 00:55:25;;;;;;;6.47;2.00;;;19.10;80.60;;;;;;4118508;28;20467;-58
2023/06/27 00:57:29;;;;;;;10.05;2.30;;;19.10;80.80;;;;;;4118344;28;20078;-58
2023/06/27 00:59:31;;;;;;;6.32;1.80;;;19.10;80.40;;;;;;4118203;28;20057;-58
2023/06/27 01:01:33;;;;;;;10.07;2.00;;;19.10;80.70;;;;;;4117836;28;20093;-59
2023/06/27 01:03:35;;;;;;;6.78;1.70;;;19.00;80.90;;;;;;4117562;28;20152;-58
2023/06/27 01:05:38;;;;;;;8.48;1.95;;;19.00;81.60;;;;;;4118326;28;20046;-59
2023/06/27 01:07:45;;;;;;;5.45;1.83;;;19.00;80.90;;;;;;4118155;28;20070;-57
2023/06/27 01:09:51;;;;;;;6.05;1.58;;;19.00;81.30;;;;;;4100652;29;20070;-58
2023/06/27 01:12:00;;;;;;;8.77;2.25;;;18.90;82.20;;;;;;4117409;28;20139;-58
2023/06/27 01:14:04;;;;;;;5.65;1.90;;;18.90;81.50;;;;;;4118000;28;20148;-57
2023/06/27 01:16:06;;;;;;;9.88;2.25;;;18.90;81.50;;;;;;4117952;28;20062;-57
2023/06/27 01:18:11;;;;;;;9.93;2.60;;;18.90;81.40;;;;;;4117906;28;20053;-57
2023/06/27 01:20:14;;;;;;;;;;;18.90;81.40;;;;;;4118606;28;20054;-57
2023/06/27 01:22:18;;;;;;;7.22;1.67;;;18.90;81.50;;;;;;4116631;28;20017;-55
2023/06/27 01:24:25;;;;;;;5.88;1.88;;;18.90;81.10;;;;;;4117907;28;20062;-55
2023/06/27 01:26:27;;;;;;;10.98;2.08;;;18.90;81.90;;;;;;4117851;28;20118;-56
2023/06/27 01:28:30;;;;;;;10.40;1.92;;;18.80;81.90;;;;;;4118004;28;20051;-57
2023/06/27 01:30:34;;;;;;;7.35;2.03;;;18.80;81.80;;;;;;4117563;28;20057;-57
2023/06/27 01:32:42;;;;;;;9.30;2.20;;;18.80;81.80;;;;;;4116641;28;20397;-57
2023/06/27 01:34:50;;;;;;;9.27;2.13;;;18.70;81.80;;;;;;4117671;28;20055;-57
2023/06/27 01:36:58;;;;;;;6.55;2.08;;;18.70;82.30;;;;;;4117199;28;20047;-57
2023/06/27 01:39:06;;;;;;;7.82;2.17;;;18.70;82.20;;;;;;4117742;28;20047;-55
2023/06/27 01:41:14;;;;;;;5.40;2.10;;;18.70;82.60;;;;;;4117718;28;20050;-55
2023/06/27 01:43:18;;;;;;;6.38;1.88;;;18.70;82.70;;;;;;4116752;28;20066;-57
2023/06/27 01:45:21;;;;;;;8.27;2.22;;;18.60;82.50;;;;;;4117325;28;20059;-57
2023/06/27 01:47:25;;;;;;;8.27;1.80;;;18.60;83.00;;;;;;4117754;28;20378;-56
2023/06/27 01:49:27;;;;;;;6.97;2.17;;;18.60;82.50;;;;;;4117139;28;20564;-54
2023/06/27 01:51:29;;;;;;;7.03;1.95;;;18.60;83.00;;;;;;4117302;28;20057;-53
2023/06/27 01:53:32;;;;;;;5.78;2.05;;;18.70;82.70;;;;;;4116166;28;20054;-54
2023/06/27 01:55:34;;;;;;;5.70;1.70;;;18.70;83.30;;;;;;4117408;28;20127;-54
2023/06/27 01:57:37;;;;;;;8.60;2.20;;;18.70;83.10;;;;;;4116612;28;20046;-54
2023/06/27 01:59:39;;;;;;;7.35;1.80;;;18.60;82.80;;;;;;4117397;28;20097;-58
2023/06/27 02:01:41;;;;;;;9.23;2.20;;;18.60;83.30;;;;;;4100058;29;20047;-54
2023/06/27 02:03:44;;;;;;;5.75;1.73;;;18.60;83.30;;;;;;4117066;28;20404;-56
2023/06/27 02:05:46;;;;;;;6.63;1.83;;;18.60;84.20;;;;;;4099945;29;20082;-56
2023/06/27 02:07:48;;;;;;;7.15;1.90;;;18.60;83.50;;;;;;4117117;28;20047;-57
2023/06/27 02:09:50;;;;;;;9.70;2.40;;;18.60;83.90;;;;;;4117195;28;20051;-56
2023/06/27 02:11:52;;;;;;;7.40;2.13;;;18.60;83.70;;;;;;4115088;28;20047;-56
2023/06/27 02:13:56;;;;;;;6.60;2.13;;;18.60;84.40;;;;;;4116978;28;20051;-57
2023/06/27 02:15:58;;;;;;;6.30;2.00;;;18.60;84.80;;;;;;4117481;28;20071;-61
2023/06/27 02:18:03;;;;;;;8.55;2.15;;;18.60;83.90;;;;;;4117764;28;20397;-61
2023/06/27 02:20:06;;;;;;;9.65;2.42;;;18.60;83.90;;;;;;4118526;28;20101;-57
2023/06/27 02:22:08;;;;;;;10.82;1.95;;;18.60;84.60;;;;;;4116986;28;20055;-57
2023/06/27 02:24:10;;;;;;;7.68;2.28;;;18.60;84.40;;;;;;4117725;28;20556;-55
2023/06/27 02:26:12;;;;;;;7.20;2.10;;;18.50;84.70;;;;;;4117078;28;20051;-55
2023/06/27 02:28:15;;;;;;;6.95;2.17;;;18.60;84.70;;;;;;4117104;28;20054;-55
2023/06/27 02:30:19;;;;;;;6.93;2.25;;;18.60;84.80;;;;;;4116946;28;20047;-54
2023/06/27 02:32:21;;;;;;;7.03;2.50;;;18.50;84.90;;;;;;4116155;28;20058;-57
2023/06/27 02:34:23;;;;;;;13.98;3.50;;;18.50;85.00;;;;;;4116518;28;20048;-56
2023/06/27 02:36:27;;;;;;;5.40;1.92;;;18.60;84.40;;;;;;4116339;28;20055;-55
2023/06/27 02:38:30;;;;;;;8.93;2.42;;;18.60;85.40;;;;;;4116761;28;20480;-57
2023/06/27 02:40:32;;;;;;;8.45;1.85;;;18.50;85.00;;;;;;4116446;28;20246;-57
2023/06/27 02:42:34;;;;;;;8.57;2.30;;;18.40;85.00;;;;;;4115678;28;20424;-56
2023/06/27 02:44:36;;;;;;;5.97;2.05;;;18.50;85.80;;;;;;4116436;28;20061;-57
2023/06/27 02:46:39;;;;;;;8.07;2.08;;;18.40;85.60;;;;;;4116382;28;20047;-55
2023/06/27 02:48:42;;;;;;;8.85;2.17;;;18.40;85.60;;;;;;4116482;28;20042;-54
2023/06/27 02:50:49;;;;;;;11.05;2.13;;;18.40;85.80;;;;;;4116329;28;20046;-54
2023/06/27 02:52:51;;;;;;;7.25;2.30;;;18.40;85.90;;;;;;4115618;28;20068;-57
2023/06/27 02:54:53;;;;;;;11.23;2.20;;;18.40;86.10;;;;;;4116502;28;20074;-57
2023/06/27 02:56:55;;;;;;;6.18;2.20;;;18.40;86.50;;;;;;4116451;28;20416;-57
2023/06/27 02:58:57;;;;;;;12.95;3.03;;;18.40;86.70;;;;;;4116423;28;20047;-59
2023/06/27 03:01:01;;;;;;;7.78;2.15;;;18.30;86.70;;;;;;4116498;28;20138;-57
2023/06/27 03:03:05;;;;;;;7.18;2.30;;;18.30;86.80;;;;;;4115185;28;20067;-56
2023/06/27 03:05:08;;;;;;;7.47;2.28;;;18.30;86.30;;;;;;4114794;28;20126;-57
2023/06/27 03:07:10;;;;;;;6.97;2.13;;;18.30;86.90;;;;;;4116286;28;20101;-58
2023/06/27 03:09:12;;;;;;;8.32;1.90;;;18.30;87.10;;;;;;4115499;28;20562;-57
2023/06/27 03:11:14;;;;;;;7.18;2.10;;;18.30;86.90;;;;;;4116229;28;20047;-57
2023/06/27 03:13:17;;;;;;;8.10;2.47;;;18.30;86.70;;;;;;4115256;28;20050;-54
2023/06/27 03:15:19;;;;;;;5.72;2.35;;;18.30;86.80;;;;;;4116023;28;20261;-54
2023/06/27 03:17:22;;;;;;;8.45;1.98;;;18.30;86.90;;;;;;4116114;28;20043;-55
2023/06/27 03:19:25;;;;;;;9.23;2.25;;;18.30;87.40;;;;;;4115646;28;20046;-55
2023/06/27 03:21:45;;;;;;;4.28;1.85;;;18.20;87.40;;;;;;4115867;28;20051;-55
2023/06/27 03:23:47;;;;;;;8.75;2.17;;;18.20;87.40;;;;;;4115135;28;20043;-54
2023/06/27 03:25:49;;;;;;;7.90;2.60;;;18.20;87.00;;;;;;4115933;28;20543;-57
2023/06/27 03:27:51;;;;;;;5.82;2.17;;;18.20;86.80;;;;;;4116182;28;20412;-56
2023/06/27 03:29:53;;;;;;;8.30;2.33;;;18.20;86.70;;;;;;4115940;28;20174;-57
2023/06/27 03:31:57;;;;;;;7.57;2.10;;;18.30;87.10;;;;;;4115935;28;20047;-57
2023/06/27 03:33:59;;;;;;;9.88;2.22;;;18.20;87.30;;;;;;4114939;28;20055;-57
2023/06/27 03:36:03;;;;;;;7.78;2.03;;;18.10;87.40;;;;;;4115954;28;20058;-56
2023/06/27 03:38:06;;;;;;;5.10;2.13;;;18.10;86.90;;;;;;4115748;28;20051;-56
2023/06/27 03:40:08;;;;;;;8.25;2.72;;;18.10;87.10;;;;;;4115894;28;20050;-58
2023/06/27 03:42:10;;;;;;;7.07;2.20;;;18.10;86.70;;;;;;4114969;28;20050;-55
2023/06/27 03:44:12;;;;;;;8.73;2.42;;;18.10;87.10;;;;;;4115498;28;20404;-57
2023/06/27 03:46:15;;;;;;;7.75;2.05;;;18.10;87.50;;;;;;4115508;28;20058;-57
2023/06/27 03:48:17;;;;;;;8.32;2.42;;;18.10;86.90;;;;;;4098221;29;20099;-56
2023/06/27 03:50:19;;;;;;;9.65;2.00;;;18.10;87.10;;;;;;4115653;28;20117;-57
2023/06/27 03:52:22;;;;;;;9.75;2.35;;;18.10;86.60;;;;;;4114808;28;20050;-55
2023/06/27 03:54:24;;;;;;;7.30;2.10;;;18.20;86.80;;;;;;4115353;28;20046;-53
2023/06/27 03:56:26;;;;;;;8.88;2.20;;;18.20;86.50;;;;;;4115594;28;20047;-55
2023/06/27 03:58:29;;;;;;;9.57;2.08;;;18.20;86.90;;;;;;4115657;28;20073;-55
2023/06/27 04:00:31;;;;;;;10.05;3.22;;;18.20;87.40;;;;;;4115734;28;20472;-54
2023/06/27 04:02:33;;;;;;;9.05;1.92;;;18.20;87.00;;;;;;4114415;28;20050;-56
2023/06/27 04:04:35;;;;;;;7.85;2.05;;;18.20;88.00;;;;;;4115497;28;20058;-56
2023/06/27 04:06:37;;;;;;;7.28;2.05;;;18.20;87.30;;;;;;4115657;28;20105;-58
2023/06/27 04:08:41;;;;;;;13.65;2.33;;;18.30;87.70;;;;;;4114263;28;20089;-57
2023/06/27 04:10:43;;;;;;;13.50;2.47;;;18.20;86.90;;;;;;4115528;28;20476;-57
2023/06/27 04:12:45;;;;;;;7.18;2.00;;;18.20;87.00;;;;;;4114866;28;20060;-61
2023/06/27 04:14:47;;;;;;;6.85;2.20;;;18.20;87.50;;;;;;4117549;28;20126;-57
2023/06/27 04:16:49;;;;;;;8.40;2.60;;;18.20;87.50;;;;;;4116513;28;20054;-55
2023/06/27 04:18:51;;;;;;;8.88;2.55;;;18.20;87.00;;;;;;4116463;28;20122;-55
2023/06/27 04:20:53;;;;;;;7.47;2.55;;;18.30;87.30;;;;;;4115558;28;20138;-54
2023/06/27 04:22:55;;;;;;;8.63;2.50;;;18.30;87.20;;;;;;4114576;28;20406;-55
2023/06/27 04:24:58;;;;;;;9.07;2.92;;;18.30;88.10;;;;;;4115430;28;20070;-56
2023/06/27 04:27:00;;;;;;;9.38;2.83;;;18.30;87.40;;;;;;4115660;28;20049;-54
2023/06/27 04:29:04;;;;;;;12.35;3.58;;;18.30;87.50;;;;;;4115529;28;20599;-55
2023/06/27 04:31:06;;;;;;;7.85;2.10;;;18.30;87.50;;;;;;4115258;28;20051;-54
2023/06/27 04:33:08;;;;;;;6.32;2.03;;;18.30;87.70;;;;;;4114323;28;20078;-55
2023/06/27 04:35:15;;;;;;;8.93;3.17;;;18.30;88.40;;;;;;4113927;28;20417;-54
2023/06/27 04:37:18;;;;;;;10.55;2.53;;;18.40;87.80;;;;;;4113910;28;20047;-57
2023/06/27 04:39:20;;;;;;;8.57;2.22;;;18.40;88.30;;;;;;4114958;28;20058;-55
2023/06/27 04:41:28;;;;;;;6.97;2.20;;;18.50;88.00;;;;;;4115431;28;20118;-57
2023/06/27 04:43:32;;;;;;;10.32;2.95;;;18.50;87.50;;;;;;4114330;28;20074;-57
2023/06/27 04:45:37;;;;;;;7.82;2.13;;;18.50;88.00;;;;;;4114723;28;20129;-58
2023/06/27 04:47:39;;;;;;;11.30;2.97;;;18.50;87.80;;;;;;4115160;28;20047;-57
2023/06/27 04:49:41;;;;;;;9.13;2.75;;;18.50;88.00;;;;;;4115173;28;20583;-57
2023/06/27 04:51:44;;;;;;;7.78;2.88;;;18.50;87.90;;;;;;4115183;28;20050;-57
2023/06/27 04:53:46;;;;;;;8.50;2.67;;;18.50;87.90;;;;;;4114078;28;20130;-55
2023/06/27 04:55:49;;;;;;;5.90;2.08;;;18.60;88.10;;;;;;4114870;28;20485;-55
2023/06/27 04:57:53;;;;;;;11.07;2.53;;;18.60;88.30;;;;;;4115133;28;20046;-54
2023/06/27 04:59:55;;;;;;;11.85;2.58;;;18.60;87.90;;;;;;4114845;28;20057;-55
2023/06/27 05:01:57;;;;;;;10.15;2.78;;;18.60;88.20;;;;;;4115192;28;20078;-55
2023/06/27 05:04:04;;;;;;;7.65;2.40;;;18.60;88.50;;;;;;4114035;28;20505;-55
2023/06/27 05:06:07;;;;;;;8.35;2.60;;;18.70;88.50;;;;;;4115246;28;20054;-55
2023/06/27 05:08:09;;;;;;;9.95;2.60;;;18.60;88.50;;;;;;4115084;28;20492;-54
2023/06/27 05:10:11;;;;;;;8.98;2.42;;;18.60;87.80;;;;;;4115101;28;20054;-55
2023/06/27 05:12:14;;;;;;;6.95;2.20;;;18.60;88.40;;;;;;4115134;28;20130;-54
2023/06/27 05:14:18;;;;;;;9.48;2.90;;;18.60;88.10;;;;;;4113743;28;20480;-54
2023/06/27 05:16:20;;;;;;;12.77;3.58;;;18.70;88.20;;;;;;4114956;28;20131;-55
2023/06/27 05:18:23;;;;;;;11.98;2.88;;;18.70;88.40;;;;;;4115064;28;20058;-53
2023/06/27 05:20:25;;;;;;;8.13;2.55;;;18.70;88.50;;;;;;4114644;28;20054;-54
2023/06/27 05:22:29;;;;;;;11.65;3.30;;;18.70;88.50;;;;;;4114606;28;20365;-56
2023/06/27 05:24:33;;;;;;;9.93;2.40;;;18.90;88.20;;;;;;4114481;28;20054;-58
2023/06/27 05:26:36;;;;;;;9.68;2.72;;;18.80;88.50;;;;;;4114806;28;20051;-57
2023/06/27 05:28:39;;;;;;;8.25;2.20;;;18.80;88.50;;;;;;4114765;28;20047;-57
2023/06/27 05:30:43;;;;;;;10.70;3.03;;;18.90;88.70;;;;;;4114618;28;20070;-58
2023/06/27 05:32:45;;;;;;;12.02;3.00;;;18.90;89.00;;;;;;4116005;28;20054;-56
2023/06/27 05:34:48;;;;;;;10.20;2.80;;;18.90;88.90;;;;;;4117687;28;20143;-57
2023/06/27 05:36:51;;;;;;;6.97;2.75;;;18.80;88.80;;;;;;4117722;28;20484;-57
2023/06/27 05:38:53;;;;;;;12.02;3.00;;;18.90;89.00;;;;;;4117824;28;20101;-56
2023/06/27 05:40:55;;;;;;;8.98;2.65;;;18.80;89.20;;;;;;4118046;28;20423;-60
2023/06/27 05:42:57;;;;;;;10.45;2.72;;;18.90;89.90;;;;;;4116798;28;20047;-57
2023/06/27 05:44:59;;;;;;;11.25;3.10;;;19.00;89.50;;;;;;4117108;28;20133;-58
2023/06/27 05:47:03;;;;;;;12.75;3.20;;;19.10;90.00;;;;;;4117773;28;20055;-56
2023/06/27 05:49:06;;;;;;;9.30;2.75;;;19.10;89.70;;;;;;4116153;28;20113;-55
2023/06/27 05:51:08;;;;;;;16.63;3.72;;;19.10;89.50;;;;;;4117328;28;20050;-57
2023/06/27 05:53:10;;;;;;;8.77;2.60;;;19.10;89.90;;;;;;4116564;28;20047;-57
2023/06/27 05:55:12;;;;;;;12.20;2.60;;;19.20;90.00;;;;;;4117290;28;20507;-56
2023/06/27 05:57:14;;;;;;;12.93;3.25;;;19.20;90.00;;;;;;4117543;28;20507;-54
2023/06/27 05:59:16;;;;;;;13.40;3.05;;;19.30;89.90;;;;;;4117016;28;20054;-54
2023/06/27 06:01:18;;;;;;;11.52;3.00;;;19.40;89.60;;;;;;4100282;29;20051;-54
2023/06/27 06:03:24;;;;;;;10.75;3.30;;;19.40;89.90;;;;;;4116434;28;20097;-54
2023/06/27 06:05:26;;;;;;;9.50;3.00;;;19.40;89.60;;;;;;4117291;28;20464;-54
2023/06/27 06:07:28;;;;;;;11.63;2.83;;;19.50;90.00;;;;;;4117484;28;20082;-55
2023/06/27 06:09:31;;;;;;;7.85;3.13;;;19.50;89.60;;;;;;4117331;28;20042;-58
2023/06/27 06:11:36;;;;;;;14.05;3.10;;;19.60;89.70;;;;;;4117077;28;20122;-57
2023/06/27 06:13:39;;;;;;;11.50;3.00;;;19.60;89.50;;;;;;4116039;28;20042;-57
2023/06/27 06:15:41;;;;;;;12.23;3.45;;;19.60;89.80;;;;;;4117025;28;20055;-57
2023/06/27 06:17:44;;;;;;;7.72;2.47;;;19.60;90.00;;;;;;4116963;28;20449;-54
2023/06/27 06:19:47;;;;;;;19.38;4.22;;;19.60;89.60;;;;;;4117340;28;20537;-55
2023/06/27 06:21:49;;;;;;;14.32;3.58;;;19.80;90.10;;;;;;4117307;28;20050;-54
2023/06/27 06:23:51;;;;;;;14.00;3.55;;;19.80;89.40;;;;;;4116106;28;20061;-60
2023/06/27 06:25:53;;;;;;;15.18;3.60;;;19.80;89.30;;;;;;4116949;28;20051;-55
2023/06/27 06:27:55;;;;;;;11.93;3.30;;;20.00;89.40;;;;;;4116667;28;20408;-55
2023/06/27 06:29:57;;;;;;;15.55;3.78;;;20.00;89.20;;;;;;4117050;28;20399;-55
2023/06/27 06:31:59;;;;;;;11.20;3.40;;;20.00;88.90;;;;;;4116905;28;20057;-55
2023/06/27 06:34:02;;;;;;;6.88;2.65;;;20.00;88.90;;;;;;4115963;28;20122;-55
2023/06/27 06:36:06;;;;;;;17.33;3.67;;;20.00;89.00;;;;;;4116802;28;20078;-55
2023/06/27 06:38:08;;;;;;;;;;;20.00;88.90;;;;;;4117446;28;20074;-54
2023/06/27 06:40:12;;;;;;;12.90;3.35;;;20.00;89.20;;;;;;4116698;28;19922;-54
2023/06/27 06:42:14;;;;;;;10.30;2.85;;;20.10;89.50;;;;;;4116370;28;20504;-55
2023/06/27 06:44:16;;;;;;;14.10;3.25;;;20.00;90.00;;;;;;4115596;28;20061;-54
2023/06/27 06:46:18;;;;;;;12.32;3.50;;;20.20;89.10;;;;;;4116578;28;20081;-54
2023/06/27 06:48:21;;;;;;;12.27;2.78;;;20.20;89.60;;;;;;4116440;28;20047;-55
2023/06/27 06:50:23;;;;;;;11.80;3.33;;;20.20;89.50;;;;;;4116765;28;20457;-54
2023/06/27 06:52:26;;;;;;;12.05;3.47;;;20.20;88.90;;;;;;4116377;28;20053;-55
2023/06/27 06:54:29;;;;;;;10.60;2.85;;;20.30;88.90;;;;;;4115401;28;20051;-54
2023/06/27 06:56:31;;;;;;;15.05;3.67;;;20.40;88.80;;;;;;4114936;28;20475;-51
2023/06/27 06:58:33;;;;;;;12.02;3.20;;;20.40;89.00;;;;;;4116406;28;20053;-52
2023/06/27 07:00:36;;;;;;;9.98;3.00;;;20.40;88.80;;;;;;4116268;28;20043;-58
2023/06/27 07:02:38;;;;;;;14.35;3.78;;;20.50;88.20;;;;;;4116221;28;20043;-52
2023/06/27 07:04:41;;;;;;;11.60;3.38;;;20.70;88.20;;;;;;4114121;28;20046;-52
2023/06/27 07:06:43;;;;;;;13.02;3.55;;;20.70;88.10;;;;;;4116358;28;20080;-55
2023/06/27 07:08:48;;;;;;;13.73;3.80;;;20.80;87.90;;;;;;4116456;28;20481;-55
2023/06/27 07:10:50;;;;;;;;;;;21.00;87.60;;;;;;4116624;28;20464;-55
2023/06/27 07:12:52;;;;;;;12.88;3.65;;;21.10;88.50;;;;;;4115539;28;19944;-58
2023/06/27 07:14:54;;;;;;;9.80;2.65;;;21.10;87.60;;;;;;4115849;28;20050;-55
2023/06/27 07:16:56;;;;;;;13.57;3.10;;;21.20;87.80;;;;;;4116165;28;20491;-55
2023/06/27 07:18:58;;;;;;;13.75;3.67;;;21.40;87.40;;;;;;4116142;28;20481;-57
2023/06/27 07:21:00;;;;;;;15.60;3.53;;;21.50;86.90;;;;;;4116013;28;20444;-57
2023/06/27 07:23:03;;;;;;;9.18;2.70;;;21.50;85.90;;;;;;4115096;28;20042;-57
2023/06/27 07:25:07;;;;;;;10.02;3.13;;;21.70;85.80;;;;;;4115572;28;20066;-57
2023/06/27 07:27:10;;;;;;;13.35;3.22;;;21.70;85.80;;;;;;4116070;28;20058;-58
2023/06/27 07:29:12;;;;;;;11.20;3.47;;;21.80;85.80;;;;;;4116072;28;20063;-57
2023/06/27 07:31:14;;;;;;;12.20;3.30;;;21.90;86.10;;;;;;4116070;28;20287;-57
2023/06/27 07:33:16;;;;;;;13.52;3.55;;;22.00;85.80;;;;;;4115253;28;20051;-57
2023/06/27 07:35:21;;;;;;;12.05;3.10;;;22.00;86.00;;;;;;4113942;28;20063;-57
2023/06/27 07:37:23;;;;;;;14.30;3.00;;;22.10;85.50;;;;;;4115434;28;20080;-58
2023/06/27 07:39:25;;;;;;;7.78;3.10;;;22.20;84.10;;;;;;4113186;28;20409;-58
2023/06/27 07:41:29;;;;;;;9.93;2.45;;;22.40;84.40;;;;;;4114768;28;20050;-56
2023/06/27 07:43:31;;;;;;;12.40;3.03;;;22.30;84.10;;;;;;4113675;28;20121;-56
2023/06/27 07:45:33;;;;;;;8.65;2.40;;;22.30;83.80;;;;;;4114615;28;20087;-56
2023/06/27 07:47:35;;;;;;;9.80;2.78;;;22.50;83.50;;;;;;4115033;28;20408;-55
2023/06/27 07:49:37;;;;;;;12.65;3.55;;;22.50;83.70;;;;;;4115380;28;20059;-55
2023/06/27 07:51:39;;;;;;;12.90;3.08;;;22.60;83.80;;;;;;4113098;28;20059;-56
2023/06/27 07:53:42;;;;;;;12.10;3.20;;;22.70;84.40;;;;;;4114508;28;20049;-55
2023/06/27 07:55:44;;;;;;;13.27;3.25;;;22.70;83.60;;;;;;4114658;28;20072;-56
2023/06/27 07:57:47;;;;;;;12.50;3.30;;;22.70;83.00;;;;;;4114873;28;20057;-56
2023/06/27 07:59:49;;;;;;;19.48;3.42;;;22.80;83.70;;;;;;4098476;29;20161;-56
2023/06/27 08:01:51;;;;;;;13.80;3.08;;;22.80;83.00;;;;;;4115335;28;20053;-56
2023/06/27 08:03:54;;;;;;;10.73;3.30;;;22.80;82.90;;;;;;4114483;28;20409;-56
2023/06/27 08:05:56;;;;;;;11.82;3.28;;;22.90;82.50;;;;;;4115667;28;20089;-56
2023/06/27 08:07:59;;;;;;;18.55;3.80;;;22.90;82.20;;;;;;4115890;28;20133;-56
2023/06/27 08:10:03;;;;;;;17.35;3.13;;;22.80;82.30;;;;;;4115730;28;20512;-56
2023/06/27 08:12:06;;;;;;;13.10;3.70;;;22.80;82.50;;;;;;4115701;28;20058;-56
2023/06/27 08:14:10;;;;;;;15.65;3.60;;;23.00;82.30;;;;;;4114354;28;20050;-56
2023/06/27 08:16:12;;;;;;;12.95;3.20;;;23.00;82.00;;;;;;4115577;28;20125;-55
2023/06/27 08:18:14;;;;;;;13.18;2.50;;;23.10;81.70;;;;;;4115348;28;20051;-56
2023/06/27 08:20:16;;;;;;;11.32;2.55;;;23.10;81.00;;;;;;4115414;28;20046;-56
2023/06/27 08:22:18;;;;;;;11.80;3.15;;;23.20;80.50;;;;;;4115562;28;20046;-53
2023/06/27 08:24:20;;;;;;;15.10;3.28;;;23.00;81.00;;;;;;4114045;28;20077;-56
2023/06/27 08:26:22;;;;;;;10.13;3.03;;;23.20;81.50;;;;;;4115465;28;20118;-55
2023/06/27 08:28:25;;;;;;;10.23;2.28;;;23.20;81.00;;;;;;4115408;28;20551;-56
2023/06/27 08:30:28;;;;;;;10.45;2.95;;;23.20;80.60;;;;;;4114036;28;20047;-56
2023/06/27 08:32:31;;;;;;;15.63;3.00;;;23.20;79.10;;;;;;4115556;28;20182;-56
2023/06/27 08:34:38;;;;;;;9.32;2.78;;;23.00;79.40;;;;;;4114218;28;20117;-55
2023/06/27 08:36:40;;;;;;;9.30;2.17;;;23.20;79.30;;;;;;4115244;28;20055;-55
2023/06/27 08:38:42;;;;;;;10.10;2.92;;;23.10;78.40;;;;;;4114878;28;20227;-56
2023/06/27 08:40:46;;;;;;;15.00;2.92;;;23.30;78.40;;;;;;4115211;28;20047;-55
2023/06/27 08:42:48;;;;;;;11.05;2.75;;;23.50;78.00;;;;;;4115193;28;20088;-55
2023/06/27 08:44:51;;;;;;;8.77;2.50;;;23.30;78.00;;;;;;4114064;28;20126;-56
2023/06/27 08:47:00;;;;;;;11.35;2.65;;;23.30;77.30;;;;;;4115227;28;20047;-55
2023/06/27 08:49:03;;;;;;;8.68;2.35;;;23.20;76.90;;;;;;4114958;28;20484;-55
2023/06/27 08:51:08;;;;;;;10.25;2.92;;;23.20;77.10;;;;;;4115435;28;20129;-56
2023/06/27 08:53:14;;;;;;;;;;;23.30;77.00;;;;;;4097842;29;20138;-56
2023/06/27 08:55:26;;;;;;;14.85;2.55;;;23.60;77.00;;;;;;4114991;28;19922;-56
2023/06/27 08:57:31;;;;;;;16.05;2.35;;;23.70;76.50;;;;;;4114914;28;20054;-55
2023/06/27 08:59:35;;;;;;;12.07;2.38;;;23.80;74.90;;;;;;4115035;28;20134;-56
2023/06/27 09:01:38;;;;;;;11.85;2.90;;;23.80;74.50;;;;;;4097707;29;20083;-55
2023/06/27 09:03:42;;;;;;;11.65;3.35;;;24.00;74.10;;;;;;4114160;28;20050;-56
2023/06/27 09:05:47;;;;;;;11.23;2.50;;;23.90;73.80;;;;;;4115119;28;20043;-56
2023/06/27 09:07:49;;;;;;;9.00;2.88;;;23.80;74.90;;;;;;4116772;28;20467;-54
2023/06/27 09:09:51;;;;;;;8.95;2.33;;;23.90;75.50;;;;;;4118041;28;20046;-53
2023/06/27 09:11:54;;;;;;;8.82;2.53;;;24.20;74.40;;;;;;4118416;28;20053;-53
2023/06/27 09:13:56;;;;;;;10.05;2.38;;;24.30;73.30;;;;;;4114905;28;20085;-53
2023/06/27 09:15:58;;;;;;;13.20;2.63;;;24.50;74.20;;;;;;4117672;28;20050;-53
2023/06/27 09:18:00;;;;;;;11.73;2.47;;;24.50;74.00;;;;;;4117928;28;20050;-55
2023/06/27 09:20:05;;;;;;;8.55;2.30;;;24.60;74.00;;;;;;4117795;28;20080;-56
2023/06/27 09:22:08;;;;;;;7.30;2.55;;;24.40;74.40;;;;;;4115640;28;20404;-56
2023/06/27 09:24:13;;;;;;;6.63;1.92;;;24.20;73.70;;;;;;4113780;28;20272;-55
2023/06/27 09:26:15;;;;;;;6.72;2.10;;;24.30;74.60;;;;;;4117361;28;20064;-55
2023/06/27 09:28:18;;;;;;;10.63;2.40;;;24.50;74.50;;;;;;4117451;28;20049;-53
2023/06/27 09:30:25;;;;;;;10.10;2.60;;;24.60;73.80;;;;;;4115561;28;20515;-53
2023/06/27 09:32:27;;;;;;;5.50;2.30;;;24.60;72.60;;;;;;4117481;28;20043;-53
2023/06/27 09:34:31;;;;;;;7.30;2.38;;;24.70;73.10;;;;;;4108686;28;20051;-53
2023/06/27 09:36:35;;;;;;;6.95;2.15;;;24.50;72.50;;;;;;4109109;28;20405;-53
2023/06/27 09:38:40;;;;;;;9.07;2.42;;;24.60;73.20;;;;;;4109385;28;20495;-52
2023/06/27 09:40:49;;;;;;;5.95;2.17;;;24.60;72.60;;;;;;4115186;28;20043;-53
2023/06/27 09:42:56;;;;;;;10.65;2.88;;;24.60;73.60;;;;;;4117235;28;20074;-55
2023/06/27 09:45:13;;;;;;;14.55;2.60;;;24.60;73.20;;;;;;4116134;28;20051;-55
2023/06/27 09:47:15;;;;;;;8.18;2.30;;;24.70;72.50;;;;;;4116259;28;20129;-55
2023/06/27 09:49:19;;;;;;;7.97;2.28;;;24.60;73.40;;;;;;4117060;28;20106;-55
2023/06/27 09:51:24;;;;;;;4.57;2.00;;;24.70;73.10;;;;;;4116707;28;20054;-55
2023/06/27 09:53:33;;;;;;;12.30;2.45;;;24.70;72.50;;;;;;4114530;28;20177;-55
2023/06/27 09:55:36;;;;;;;8.32;2.30;;;24.60;72.50;;;;;;4117551;28;20488;-55
2023/06/27 09:57:42;;;;;;;7.55;2.10;;;24.70;72.60;;;;;;4115700;28;20046;-55
2023/06/27 09:59:46;;;;;;;6.60;1.92;;;24.70;71.70;;;;;;4114065;28;20113;-55
2023/06/27 10:01:49;;;;;;;8.50;2.40;;;24.80;72.20;;;;;;4117092;28;20043;-55
2023/06/27 10:03:51;;;;;;;6.35;2.40;;;24.90;71.50;;;;;;4113234;28;20126;-54
2023/06/27 10:05:53;;;;;;;8.10;2.10;;;25.10;72.30;;;;;;4114420;28;20385;-55
2023/06/27 10:08:12;;;;;;;7.53;2.40;;;25.20;71.00;;;;;;4113614;28;20051;-54
2023/06/27 10:10:16;;;;;;;6.15;2.05;;;25.30;70.90;;;;;;4115550;28;20134;-55
2023/06/27 10:12:19;;;;;;;10.10;2.45;;;25.30;70.40;;;;;;4113300;28;20081;-55
2023/06/27 10:14:21;;;;;;;11.48;2.85;;;25.30;70.00;;;;;;4109914;28;20055;-54
2023/06/27 10:16:25;;;;;;;11.88;2.78;;;25.40;70.00;;;;;;4112438;28;20058;-55
2023/06/27 10:18:27;;;;;;;9.20;2.78;;;25.30;70.60;;;;;;4107721;28;20069;-55
2023/06/27 10:20:29;;;;;;;8.50;2.58;;;25.40;70.60;;;;;;4116511;28;20058;-55
2023/06/27 10:22:34;;;;;;;11.63;2.33;;;25.30;70.10;;;;;;4116445;28;20617;-55
2023/06/27 10:24:39;;;;;;;11.73;2.50;;;25.40;69.80;;;;;;4107415;28;20492;-55
2023/06/27 10:26:51;;;;;;;8.73;2.45;;;25.50;69.80;;;;;;4112387;28;20054;-56
2023/06/27 10:29:11;;;;;;;13.85;2.55;;;25.40;69.40;;;;;;4104481;28;20165;-56
2023/06/27 10:31:44;;;;;;;8.35;2.63;;;25.30;68.80;;;;;;4116170;28;20043;-55
2023/06/27 10:33:50;;;;;;;5.65;2.25;;;25.30;69.30;;;;;;4099522;29;20063;-55
2023/06/27 10:35:56;;;;;;;7.93;2.72;;;25.30;69.70;;;;;;4107838;28;20057;-54
2023/06/27 10:38:08;;;;;;;8.15;2.67;;;25.10;69.60;;;;;;4116423;28;20054;-55